sensor_id;sensor_type;location;lat;lon;timestamp;pressure;altitude;pressure_sealevel;temperature;humidity
44992;BME280;56865;51.618;7.406;2022-12-20T09:21:35;100493.91;;;17.98;100.00
44992;BME280;56865;51.618;7.406;2022-12-20T09:24:37;100497.44;;;17.80;100.00
44992;BME280;56865;51.618;7.406;2022-12-20T09:27:23;100495.56;;;18.12;100.00
44992;BME280;56865;51.618;7.406;2022-12-20T09:30:29;100499.09;;;18.00;100.00
44992;BME280;56865;51.618;7.406;2022-12-20T09:33:30;100496.41;;;18.15;100.00
44992;BME280;56865;51.618;7.406;2022-12-20T09:36:14;100519.72;;;17.91;100.00
44992;BME280;56865;51.618;7.406;2022-12-20T09:39:21;100493.81;;;18.15;100.00
44992;BME280;56865;51.618;7.406;2022-12-20T09:41:53;100510.28;;;17.93;100.00
44992;BME280;56865;51.618;7.406;2022-12-20T09:44:47;100513.69;;;18.01;100.00
44992;BME280;56865;51.618;7.406;2022-12-20T09:47:18;100506.75;;;18.14;100.00
44992;BME280;56865;51.618;7.406;2022-12-20T09:49:50;100518.13;;;17.71;100.00
44992;BME280;56865;51.618;7.406;2022-12-20T09:52:38;100512.75;;;18.10;100.00
44992;BME280;56865;51.618;7.406;2022-12-20T10:01:48;100512.84;;;17.96;100.00
44992;BME280;56865;51.618;7.406;2022-12-20T10:14:50;100505.66;;;18.44;100.00
44992;BME280;56865;51.618;7.406;2022-12-20T10:18:02;100488.66;;;18.12;100.00
44992;BME280;56865;51.618;7.406;2022-12-20T10:20:45;100492.16;;;18.07;100.00
44992;BME280;56865;51.618;7.406;2022-12-20T10:23:29;100497.13;;;18.33;100.00
44992;BME280;56865;51.618;7.406;2022-12-20T10:26:26;100493.16;;;17.78;100.00
44992;BME280;56865;51.618;7.406;2022-12-20T10:29:16;100489.63;;;17.93;100.00
44992;BME280;56865;51.618;7.406;2022-12-20T10:32:17;100491.47;;;17.69;100.00
44992;BME280;56865;51.618;7.406;2022-12-20T10:35:11;100481.91;;;17.99;100.00
44992;BME280;56865;51.618;7.406;2022-12-20T10:38:10;100478.50;;;17.87;100.00
44992;BME280;56865;51.618;7.406;2022-12-20T10:41:10;100468.25;;;17.75;100.00
44992;BME280;56865;51.618;7.406;2022-12-20T10:43:59;100463.94;;;17.79;100.00
44992;BME280;56865;51.618;7.406;2022-12-20T10:47:19;100449.41;;;17.68;100.00
44992;BME280;56865;51.618;7.406;2022-12-20T10:50:31;100440.78;;;17.68;100.00
44992;BME280;56865;51.618;7.406;2022-12-20T10:53:50;100435.34;;;18.14;100.00
44992;BME280;56865;51.618;7.406;2022-12-20T10:56:12;100434.53;;;18.09;100.00
44992;BME280;56865;51.618;7.406;2022-12-20T11:02:26;100420.91;;;17.87;100.00
44992;BME280;56865;51.618;7.406;2022-12-20T11:05:22;100427.00;;;17.75;100.00
44992;BME280;56865;51.618;7.406;2022-12-20T11:11:44;100418.09;;;18.23;100.00
44992;BME280;56865;51.618;7.406;2022-12-20T11:18:13;100408.22;;;18.68;100.00
44992;BME280;56865;51.618;7.406;2022-12-20T11:21:33;100414.78;;;18.07;100.00
44992;BME280;56865;51.618;7.406;2022-12-20T11:24:24;100414.56;;;18.33;100.00
44992;BME280;56865;51.618;7.406;2022-12-20T11:27:28;100404.31;;;18.27;100.00
44992;BME280;56865;51.618;7.406;2022-12-20T11:30:38;100401.53;;;18.47;100.00
44992;BME280;56865;51.618;7.406;2022-12-20T11:36:27;100387.06;;;18.32;100.00
44992;BME280;56865;51.618;7.406;2022-12-20T11:39:22;100381.81;;;18.40;100.00
44992;BME280;56865;51.618;7.406;2022-12-20T11:45:35;100371.34;;;18.57;100.00
44992;BME280;56865;51.618;7.406;2022-12-20T11:48:49;100376.06;;;18.11;100.00
44992;BME280;56865;51.618;7.406;2022-12-20T11:57:55;100377.41;;;18.49;100.00
44992;BME280;56865;51.618;7.406;2022-12-20T12:10:51;100356.84;;;18.42;100.00
44992;BME280;56865;51.618;7.406;2022-12-20T12:13:52;100359.78;;;18.03;100.00
44992;BME280;56865;51.618;7.406;2022-12-20T12:16:55;100343.31;;;18.18;100.00
44992;BME280;56865;51.618;7.406;2022-12-20T12:19:44;100359.25;;;18.59;100.00
44992;BME280;56865;51.618;7.406;2022-12-20T12:22:43;100358.59;;;18.40;100.00
44992;BME280;56865;51.618;7.406;2022-12-20T12:42:31;100352.94;;;18.84;100.00
44992;BME280;56865;51.618;7.406;2022-12-20T12:45:43;100343.91;;;19.18;100.00
44992;BME280;56865;51.618;7.406;2022-12-20T12:49:21;100347.75;;;18.86;100.00
44992;BME280;56865;51.618;7.406;2022-12-20T12:52:36;100346.19;;;19.41;100.00
44992;BME280;56865;51.618;7.406;2022-12-20T12:55:41;100344.94;;;19.06;100.00
44992;BME280;56865;51.618;7.406;2022-12-20T12:58:36;100347.69;;;18.89;100.00
44992;BME280;56865;51.618;7.406;2022-12-20T13:01:45;100333.97;;;19.53;100.00
44992;BME280;56865;51.618;7.406;2022-12-20T13:04:23;100347.19;;;18.58;100.00
44992;BME280;56865;51.618;7.406;2022-12-20T13:07:03;100334.75;;;18.97;100.00
44992;BME280;56865;51.618;7.406;2022-12-20T13:09:54;100337.91;;;19.17;100.00
44992;BME280;56865;51.618;7.406;2022-12-20T13:42:30;100358.75;;;18.24;100.00
44992;BME280;56865;51.618;7.406;2022-12-20T13:46:05;100373.00;;;18.61;100.00
44992;BME280;56865;51.618;7.406;2022-12-20T13:49:09;100373.03;;;18.56;100.00
44992;BME280;56865;51.618;7.406;2022-12-20T13:51:40;100381.41;;;17.85;100.00
44992;BME280;56865;51.618;7.406;2022-12-20T13:54:14;100381.38;;;18.81;100.00
44992;BME280;56865;51.618;7.406;2022-12-20T13:56:59;100419.13;;;18.95;100.00
44992;BME280;56865;51.618;7.406;2022-12-20T13:59:32;100407.06;;;18.02;100.00
44992;BME280;56865;51.618;7.406;2022-12-20T14:02:09;100398.78;;;18.64;100.00
44992;BME280;56865;51.618;7.406;2022-12-20T14:04:41;100383.34;;;18.58;100.00
44992;BME280;56865;51.618;7.406;2022-12-20T14:07:13;100576.13;;;20.24;100.00
44992;BME280;56865;51.618;7.406;2022-12-20T14:09:53;100393.34;;;19.59;100.00
44992;BME280;56865;51.618;7.406;2022-12-20T14:12:24;100371.91;;;20.08;100.00
44992;BME280;56865;51.618;7.406;2022-12-20T14:15:17;100369.66;;;19.88;100.00
44992;BME280;56865;51.618;7.406;2022-12-20T14:17:50;100374.09;;;19.17;100.00
44992;BME280;56865;51.618;7.406;2022-12-20T14:20:27;100381.59;;;19.97;100.00
44992;BME280;56865;51.618;7.406;2022-12-20T14:23:01;100634.09;;;19.28;100.00
44992;BME280;56865;51.618;7.406;2022-12-20T14:25:37;100404.75;;;19.44;100.00
44992;BME280;56865;51.618;7.406;2022-12-20T14:28:16;100383.66;;;19.09;100.00
44992;BME280;56865;51.618;7.406;2022-12-20T14:30:57;100383.53;;;19.83;100.00
44992;BME280;56865;51.618;7.406;2022-12-20T14:33:30;100389.00;;;18.94;100.00
44992;BME280;56865;51.618;7.406;2022-12-20T14:36:16;100380.13;;;19.16;100.00
44992;BME280;56865;51.618;7.406;2022-12-20T14:38:51;100640.38;;;24.75;100.00
44992;BME280;56865;51.618;7.406;2022-12-20T14:44:12;100540.16;;;21.15;100.00
44992;BME280;56865;51.618;7.406;2022-12-20T14:46:50;100430.56;;;20.09;100.00
44992;BME280;56865;51.618;7.406;2022-12-20T14:49:22;100900.63;;;35.00;100.00
44992;BME280;56865;51.618;7.406;2022-12-20T14:52:04;100759.91;;;45.46;67.73
44992;BME280;56865;51.618;7.406;2022-12-20T14:54:34;100615.75;;;29.59;70.14
44992;BME280;56865;51.618;7.406;2022-12-20T14:57:24;100535.84;;;28.96;100.00
44992;BME280;56865;51.618;7.406;2022-12-20T14:59:58;100364.19;;;28.66;100.00
44992;BME280;56865;51.618;7.406;2022-12-20T15:02:38;100375.59;;;28.32;93.88
44992;BME280;56865;51.618;7.406;2022-12-20T15:08:08;100361.31;;;28.02;86.16
44992;BME280;56865;51.618;7.406;2022-12-20T15:10:49;100365.72;;;28.02;81.07
44992;BME280;56865;51.618;7.406;2022-12-20T15:13:21;100351.34;;;28.62;80.72
44992;BME280;56865;51.618;7.406;2022-12-20T15:15:54;100354.44;;;28.52;78.58
44992;BME280;56865;51.618;7.406;2022-12-20T15:18:31;100358.31;;;28.95;74.92
44992;BME280;56865;51.618;7.406;2022-12-20T15:21:21;100345.16;;;27.94;78.17
44992;BME280;56865;51.618;7.406;2022-12-20T15:24:01;100347.88;;;27.38;79.29
44992;BME280;56865;51.618;7.406;2022-12-20T15:27:01;100338.94;;;27.06;80.48
44992;BME280;56865;51.618;7.406;2022-12-20T15:29:41;100338.63;;;27.31;81.04
44992;BME280;56865;51.618;7.406;2022-12-20T15:32:14;100342.19;;;27.11;81.99
44992;BME280;56865;51.618;7.406;2022-12-20T15:34:52;100343.41;;;27.40;79.62
44992;BME280;56865;51.618;7.406;2022-12-20T15:37:40;100340.63;;;26.29;83.56
44992;BME280;56865;51.618;7.406;2022-12-20T15:46:47;100332.13;;;26.83;81.53
44992;BME280;56865;51.618;7.406;2022-12-20T16:05:50;100312.84;;;26.85;79.72
44992;BME280;56865;51.618;7.406;2022-12-20T16:12:47;100310.94;;;26.89;89.08
